createdAt,value
2023-02-18T00:01:08.032Z,10.59
2023-02-18T00:03:34.745Z,10.83
2023-02-18T00:06:01.477Z,10.72
2023-02-18T00:08:28.113Z,10.36
2023-02-18T00:10:54.759Z,10.67
2023-02-18T00:13:21.368Z,10.75
2023-02-18T00:15:48.049Z,10.38
2023-02-18T00:18:14.783Z,10.70
2023-02-18T00:20:41.481Z,10.57
2023-02-18T00:23:08.108Z,10.48
2023-02-18T00:25:34.782Z,10.43
2023-02-18T00:28:01.428Z,10.40
2023-02-18T00:30:28.138Z,9.90
2023-02-18T00:32:54.867Z,9.78
2023-02-18T00:35:21.489Z,9.51
2023-02-18T00:37:48.158Z,10.07
2023-02-18T00:40:14.799Z,10.32
2023-02-18T00:42:41.475Z,10.35
2023-02-18T00:45:08.117Z,10.58
2023-02-18T00:47:34.738Z,10.62
2023-02-18T00:50:01.404Z,10.84
2023-02-18T00:52:28.081Z,10.76
2023-02-18T00:54:54.735Z,10.72
2023-02-18T00:57:21.441Z,10.68
2023-02-18T00:59:48.077Z,10.69
2023-02-18T01:02:14.703Z,10.83
2023-02-18T01:04:41.458Z,10.79
2023-02-18T01:07:08.133Z,10.74
2023-02-18T01:09:34.764Z,10.80
2023-02-18T01:12:01.404Z,10.74
2023-02-18T01:14:28.116Z,10.73
2023-02-18T01:16:54.778Z,10.71
2023-02-18T01:19:21.503Z,10.70
2023-02-18T01:21:48.221Z,10.57
2023-02-18T01:24:14.925Z,10.38
2023-02-18T01:26:41.594Z,10.20
2023-02-18T01:29:08.239Z,10.18
2023-02-18T01:31:35.027Z,10.28
2023-02-18T01:34:01.705Z,10.47
2023-02-18T01:36:28.401Z,10.25
2023-02-18T01:38:55.057Z,10.23
2023-02-18T01:41:21.692Z,10.39
2023-02-18T01:43:48.385Z,10.49
2023-02-18T01:46:15.099Z,10.63
2023-02-18T01:48:41.770Z,10.58
2023-02-18T01:51:08.381Z,10.62
2023-02-18T01:53:35.017Z,10.68
2023-02-18T01:56:01.676Z,10.54
2023-02-18T01:58:28.354Z,10.50
2023-02-18T02:00:55.075Z,10.52
2023-02-18T02:03:21.766Z,10.31
2023-02-18T02:05:48.423Z,10.59
2023-02-18T02:08:15.064Z,10.78
2023-02-18T02:10:41.655Z,10.69
2023-02-18T02:13:08.282Z,10.72
2023-02-18T02:15:34.916Z,10.85
2023-02-18T02:18:01.603Z,10.58
2023-02-18T02:20:28.239Z,10.62
2023-02-18T02:22:54.969Z,10.16
2023-02-18T02:25:21.707Z,9.74
2023-02-18T02:27:48.313Z,10.00
2023-02-18T02:30:15.022Z,10.31
2023-02-18T02:32:41.650Z,10.28
2023-02-18T02:35:08.333Z,10.36
2023-02-18T02:37:35.054Z,10.35
2023-02-18T02:40:01.658Z,10.40
2023-02-18T02:42:28.345Z,10.30
2023-02-18T02:44:54.975Z,10.06
2023-02-18T02:47:21.654Z,10.19
2023-02-18T02:49:48.302Z,10.30
2023-02-18T02:52:14.913Z,10.41
2023-02-18T02:54:41.612Z,10.47
2023-02-18T02:57:08.238Z,10.32
2023-02-18T02:59:34.853Z,10.07
2023-02-18T03:02:01.547Z,10.34
2023-02-18T03:04:28.198Z,9.85
2023-02-18T03:06:54.869Z,10.00
2023-02-18T03:09:21.489Z,9.46
2023-02-18T03:11:48.234Z,9.86
2023-02-18T03:14:14.915Z,10.03
2023-02-18T03:16:41.668Z,10.09
2023-02-18T03:19:08.342Z,10.09
2023-02-18T03:21:34.977Z,10.17
2023-02-18T03:24:01.591Z,10.23
2023-02-18T03:26:28.212Z,10.17
2023-02-18T03:28:54.810Z,10.40
2023-02-18T03:31:21.610Z,10.10
2023-02-18T03:33:48.312Z,10.17
2023-02-18T03:36:15.019Z,10.38
2023-02-18T03:38:41.852Z,10.30
2023-02-18T03:41:08.517Z,10.52
2023-02-18T03:43:35.155Z,10.44
2023-02-18T03:46:01.809Z,10.17
2023-02-18T03:48:28.484Z,10.38
2023-02-18T03:50:55.130Z,10.55
2023-02-18T03:53:21.763Z,10.65
2023-02-18T03:55:48.389Z,10.77
2023-02-18T03:58:15.040Z,10.83
2023-02-18T04:00:41.747Z,10.77
2023-02-18T04:03:08.415Z,10.76
2023-02-18T04:05:35.197Z,10.65
2023-02-18T04:08:01.812Z,10.75
2023-02-18T04:10:28.452Z,10.84
2023-02-18T04:12:55.078Z,10.82
2023-02-18T04:15:21.697Z,10.72
2023-02-18T04:17:48.353Z,10.57
2023-02-18T04:20:15.027Z,10.67
2023-02-18T04:22:41.726Z,10.80
2023-02-18T04:25:08.350Z,10.82
2023-02-18T04:27:34.976Z,10.92
2023-02-18T04:30:01.819Z,11.07
2023-02-18T04:32:28.484Z,11.15
2023-02-18T04:34:55.367Z,11.23
2023-02-18T04:37:22.052Z,11.19
2023-02-18T04:39:48.687Z,11.20
2023-02-18T04:42:15.375Z,11.21
2023-02-18T04:44:42.063Z,11.23
2023-02-18T04:47:08.709Z,11.22
2023-02-18T04:49:35.388Z,11.12
2023-02-18T04:52:02.029Z,11.09
2023-02-18T04:54:28.670Z,10.98
2023-02-18T04:56:55.302Z,10.96
2023-02-18T04:59:22.014Z,10.99
2023-02-18T05:01:48.687Z,10.90
2023-02-18T05:04:15.481Z,11.01
2023-02-18T05:06:42.207Z,10.92
2023-02-18T05:09:08.849Z,10.93
2023-02-18T05:11:35.534Z,11.04
2023-02-18T05:14:02.229Z,10.94
2023-02-18T05:16:28.863Z,11.01
2023-02-18T05:18:55.614Z,11.08
2023-02-18T05:21:22.315Z,10.91
2023-02-18T05:23:48.928Z,10.89
2023-02-18T05:26:15.540Z,10.73
2023-02-18T05:28:42.198Z,10.71
2023-02-18T05:31:08.982Z,10.76
2023-02-18T05:33:35.650Z,10.69
2023-02-18T05:36:02.248Z,10.71
2023-02-18T05:38:28.860Z,10.78
2023-02-18T05:40:55.476Z,10.85
2023-02-18T05:43:22.157Z,10.99
2023-02-18T05:45:48.839Z,11.05
2023-02-18T05:48:15.543Z,11.06
2023-02-18T05:50:42.192Z,10.63
2023-02-18T05:53:08.905Z,10.74
2023-02-18T05:55:35.538Z,10.78
2023-02-18T05:58:02.225Z,10.75
2023-02-18T06:00:28.921Z,10.67
2023-02-18T06:02:55.690Z,10.68
2023-02-18T06:05:22.353Z,10.58
2023-02-18T06:07:49.011Z,10.53
2023-02-18T06:10:15.646Z,10.67
2023-02-18T06:12:42.321Z,10.76
2023-02-18T06:15:08.960Z,10.67
2023-02-18T06:17:35.578Z,10.71
2023-02-18T06:20:02.241Z,10.71
2023-02-18T06:22:28.876Z,10.59
2023-02-18T06:24:55.505Z,10.51
2023-02-18T06:27:22.226Z,10.55
2023-02-18T06:29:48.838Z,10.60
2023-02-18T06:32:15.643Z,10.66
2023-02-18T06:34:42.394Z,10.73
2023-02-18T06:37:09.056Z,10.62
2023-02-18T06:39:35.689Z,10.60
2023-02-18T06:42:02.375Z,10.71
2023-02-18T06:44:28.984Z,10.78
2023-02-18T06:46:55.701Z,10.50
2023-02-18T06:49:22.349Z,10.41
2023-02-18T06:51:49.041Z,10.56
2023-02-18T06:54:15.762Z,10.55
2023-02-18T06:56:42.431Z,10.46
2023-02-18T06:59:09.111Z,10.40
2023-02-18T07:01:35.806Z,10.55
2023-02-18T07:04:02.524Z,10.69
2023-02-18T07:06:29.214Z,10.90
2023-02-18T07:08:55.960Z,10.91
2023-02-18T07:11:22.592Z,11.05
2023-02-18T07:13:49.240Z,11.07
2023-02-18T07:16:15.903Z,11.03
2023-02-18T07:18:42.516Z,10.92
2023-02-18T07:21:09.138Z,11.01
2023-02-18T07:23:35.757Z,11.15
2023-02-18T07:26:02.383Z,11.10
2023-02-18T07:28:29.013Z,11.29
2023-02-18T07:30:55.805Z,11.20
2023-02-18T07:33:22.503Z,11.36
2023-02-18T07:35:49.114Z,11.34
2023-02-18T07:38:15.725Z,11.39
2023-02-18T07:40:42.406Z,11.29
2023-02-18T07:43:09.124Z,11.23
2023-02-18T07:45:35.807Z,11.54
2023-02-18T07:48:02.440Z,11.68
2023-02-18T07:50:29.176Z,11.71
2023-02-18T07:52:55.904Z,11.88
2023-02-18T07:55:22.558Z,12.13
2023-02-18T07:57:49.239Z,12.16
2023-02-18T08:00:15.895Z,12.24
2023-02-18T08:02:42.539Z,12.32
2023-02-18T08:05:09.159Z,12.22
2023-02-18T08:07:35.779Z,12.10
2023-02-18T08:10:02.467Z,12.18
2023-02-18T08:12:29.178Z,12.36
2023-02-18T08:14:55.851Z,12.67
2023-02-18T08:17:22.477Z,12.98
2023-02-18T08:19:49.286Z,12.91
2023-02-18T08:22:15.963Z,13.00
2023-02-18T08:24:42.614Z,13.26
2023-02-18T08:27:09.243Z,13.42
2023-02-18T08:29:35.913Z,13.54
2023-02-18T08:32:02.542Z,13.73
2023-02-18T08:34:29.232Z,14.08
2023-02-18T08:36:55.929Z,14.03
2023-02-18T08:39:22.655Z,14.21
2023-02-18T08:41:49.322Z,14.44
2023-02-18T08:44:15.962Z,14.25
2023-02-18T08:46:42.710Z,14.15
2023-02-18T08:49:09.391Z,14.15
2023-02-18T08:51:36.090Z,14.38
2023-02-18T08:54:02.735Z,14.43
2023-02-18T08:56:29.485Z,14.38
2023-02-18T08:58:56.155Z,14.61
2023-02-18T09:01:22.929Z,14.71
2023-02-18T09:03:49.679Z,14.92
2023-02-18T09:06:16.396Z,14.92
2023-02-18T09:08:43.118Z,14.89
2023-02-18T09:11:10.135Z,14.94
2023-02-18T09:13:36.995Z,14.76
2023-02-18T09:16:03.727Z,15.02
2023-02-18T09:18:30.423Z,15.28
2023-02-18T09:20:57.084Z,15.17
2023-02-18T09:23:23.728Z,15.39
2023-02-18T09:25:50.369Z,15.78
2023-02-18T09:28:17.016Z,15.67
2023-02-18T09:30:43.678Z,16.00
2023-02-18T09:33:10.266Z,16.34
2023-02-18T09:35:37.446Z,16.69
2023-02-18T09:38:04.077Z,17.01
2023-02-18T09:40:30.703Z,17.04
2023-02-18T09:42:57.439Z,17.35
2023-02-18T09:45:24.124Z,17.67
2023-02-18T09:47:50.776Z,17.92
2023-02-18T09:50:17.402Z,17.79
2023-02-18T09:52:44.040Z,17.70
2023-02-18T09:55:10.758Z,17.71
2023-02-18T09:57:37.404Z,17.95
2023-02-18T10:00:04.086Z,18.13
2023-02-18T10:02:30.751Z,17.55
2023-02-18T10:04:57.411Z,16.95
2023-02-18T10:07:24.181Z,17.92
2023-02-18T10:09:50.831Z,18.47
2023-02-18T10:12:17.515Z,18.45
2023-02-18T10:14:44.139Z,18.89
2023-02-18T10:17:10.811Z,19.30
2023-02-18T10:19:37.429Z,19.56
2023-02-18T10:22:04.116Z,19.43
2023-02-18T10:24:30.765Z,19.41
2023-02-18T10:26:57.380Z,19.25
2023-02-18T10:29:24.020Z,19.67
2023-02-18T10:31:50.836Z,19.99
2023-02-18T10:34:17.595Z,20.24
2023-02-18T10:36:44.283Z,20.48
2023-02-18T10:39:10.919Z,20.58
2023-02-18T10:41:37.545Z,20.84
2023-02-18T10:44:04.223Z,20.74
2023-02-18T10:46:30.922Z,21.02
2023-02-18T10:48:57.692Z,21.27
2023-02-18T10:51:24.334Z,21.44
2023-02-18T10:53:50.977Z,20.56
2023-02-18T10:56:17.837Z,20.66
2023-02-18T10:58:44.552Z,21.35
2023-02-18T11:01:11.412Z,22.00
2023-02-18T11:03:38.145Z,22.19
2023-02-18T11:06:04.852Z,21.60
2023-02-18T11:08:31.555Z,21.36
2023-02-18T11:10:58.164Z,22.02
2023-02-18T11:13:24.802Z,22.16
2023-02-18T11:15:51.446Z,22.25
2023-02-18T11:18:18.129Z,22.40
2023-02-18T11:20:44.828Z,22.36
2023-02-18T11:23:11.468Z,22.42
2023-02-18T11:25:38.084Z,22.15
2023-02-18T11:28:04.707Z,21.96
2023-02-18T11:30:31.406Z,22.30
2023-02-18T11:32:58.070Z,22.44
2023-02-18T11:35:24.682Z,21.93
2023-02-18T11:37:51.386Z,22.39
2023-02-18T11:40:18.036Z,22.57
2023-02-18T11:42:44.726Z,22.56
2023-02-18T11:45:11.342Z,22.65
2023-02-18T11:47:37.987Z,22.18
2023-02-18T11:50:04.662Z,22.47
2023-02-18T11:52:31.327Z,22.72
2023-02-18T11:54:58.026Z,22.90
2023-02-18T11:57:24.673Z,21.55
2023-02-18T11:59:51.331Z,20.77
2023-02-18T12:02:18.032Z,20.75
2023-02-18T12:04:44.763Z,20.91
2023-02-18T12:07:11.418Z,20.99
2023-02-18T12:09:38.188Z,20.83
2023-02-18T12:12:04.844Z,21.32
2023-02-18T12:14:31.587Z,20.66
2023-02-18T12:17:00.129Z,20.96
2023-02-18T12:19:26.830Z,21.79
2023-02-18T12:21:53.444Z,21.77
2023-02-18T12:24:20.068Z,21.66
2023-02-18T12:26:46.731Z,21.12
2023-02-18T12:29:15.412Z,20.88
2023-02-18T12:31:42.105Z,22.03
2023-02-18T12:34:08.908Z,21.53
2023-02-18T12:36:35.587Z,21.19
2023-02-18T12:39:02.289Z,21.32
2023-02-18T12:41:29.025Z,21.72
2023-02-18T12:43:55.700Z,22.14
2023-02-18T12:46:22.340Z,22.73
2023-02-18T12:48:49.013Z,23.39
2023-02-18T12:51:15.684Z,23.22
2023-02-18T12:53:44.423Z,22.20
2023-02-18T12:56:11.305Z,22.25
2023-02-18T12:58:38.049Z,21.80
2023-02-18T13:01:04.772Z,21.53
2023-02-18T13:03:31.468Z,21.46
2023-02-18T13:05:58.168Z,22.32
2023-02-18T13:08:24.814Z,22.00
2023-02-18T13:10:51.456Z,21.59
2023-02-18T13:13:18.100Z,20.73
2023-02-18T13:15:44.750Z,20.47
2023-02-18T13:18:11.425Z,20.92
2023-02-18T13:20:38.095Z,22.30
2023-02-18T13:23:04.847Z,23.11
2023-02-18T13:25:31.507Z,22.49
2023-02-18T13:27:58.138Z,21.77
2023-02-18T13:30:25.002Z,21.61
2023-02-18T13:32:51.836Z,22.07
2023-02-18T13:35:18.513Z,21.62
2023-02-18T13:37:45.172Z,21.43
2023-02-18T13:40:11.859Z,21.66
2023-02-18T13:42:38.548Z,22.58
2023-02-18T13:45:05.146Z,21.80
2023-02-18T13:47:31.810Z,21.98
2023-02-18T13:49:58.479Z,22.72
2023-02-18T13:52:25.150Z,22.57
2023-02-18T13:54:52.185Z,22.42
2023-02-18T13:57:18.934Z,22.25
2023-02-18T13:59:45.606Z,22.60
2023-02-18T14:02:12.329Z,23.06
2023-02-18T14:04:39.523Z,22.86
2023-02-18T14:07:06.224Z,22.20
2023-02-18T14:09:32.846Z,22.44
2023-02-18T14:11:59.470Z,22.26
2023-02-18T14:14:26.143Z,22.65
2023-02-18T14:16:52.840Z,22.82
2023-02-18T14:19:19.477Z,22.32
2023-02-18T14:21:46.129Z,22.47
2023-02-18T14:24:12.762Z,21.91
2023-02-18T14:26:39.469Z,21.27
2023-02-18T14:29:06.182Z,21.61
2023-02-18T14:31:32.975Z,21.34
2023-02-18T14:33:59.641Z,21.88
2023-02-18T14:36:26.283Z,22.34
2023-02-18T14:38:52.975Z,22.54
2023-02-18T14:41:19.659Z,22.64
2023-02-18T14:43:46.306Z,22.69
2023-02-18T14:46:12.916Z,22.43
2023-02-18T14:48:39.560Z,22.52
2023-02-18T14:51:06.361Z,22.41
2023-02-18T14:53:33.069Z,22.08
2023-02-18T14:55:59.714Z,21.16
2023-02-18T14:58:26.393Z,21.47
2023-02-18T15:00:53.046Z,20.28
2023-02-18T15:03:19.725Z,19.70
2023-02-18T15:05:46.355Z,19.57
2023-02-18T15:08:13.046Z,20.19
2023-02-18T15:10:39.721Z,20.67
2023-02-18T15:13:06.355Z,20.00
2023-02-18T15:15:33.071Z,19.64
2023-02-18T15:17:59.715Z,20.03
2023-02-18T15:20:27.346Z,20.52
2023-02-18T15:22:54.109Z,20.22
2023-02-18T15:25:20.747Z,20.42
2023-02-18T15:27:47.431Z,19.83
2023-02-18T15:30:14.141Z,19.98
2023-02-18T15:32:40.765Z,20.25
2023-02-18T15:35:07.444Z,20.39
2023-02-18T15:37:34.113Z,20.43
2023-02-18T15:40:00.751Z,20.40
2023-02-18T15:42:27.476Z,20.34
2023-02-18T15:44:54.149Z,20.20
2023-02-18T15:47:20.850Z,20.10
2023-02-18T15:49:47.578Z,19.88
2023-02-18T15:52:14.188Z,19.80
2023-02-18T15:54:40.848Z,19.80
2023-02-18T15:57:07.490Z,19.69
2023-02-18T15:59:34.128Z,19.45
2023-02-18T16:02:00.853Z,19.42
2023-02-18T16:04:27.506Z,19.26
2023-02-18T16:06:54.148Z,19.08
2023-02-18T16:09:20.796Z,18.98
2023-02-18T16:11:47.485Z,18.77
2023-02-18T16:14:14.175Z,18.56
2023-02-18T16:16:40.941Z,18.36
2023-02-18T16:19:07.638Z,18.27
2023-02-18T16:21:34.230Z,18.03
2023-02-18T16:24:00.906Z,17.84
2023-02-18T16:26:27.590Z,17.70
2023-02-18T16:28:54.205Z,17.52
2023-02-18T16:31:20.984Z,17.17
2023-02-18T16:33:47.702Z,17.05
2023-02-18T16:36:14.337Z,16.91
2023-02-18T16:38:40.967Z,16.62
2023-02-18T16:41:07.658Z,16.60
2023-02-18T16:43:36.042Z,16.62
2023-02-18T16:46:02.729Z,16.43
2023-02-18T16:48:29.612Z,16.30
2023-02-18T16:50:57.215Z,16.30
2023-02-18T16:53:23.975Z,16.31
2023-02-18T16:55:50.641Z,16.21
2023-02-18T16:58:17.372Z,15.90
2023-02-18T17:00:44.057Z,15.69
2023-02-18T17:03:10.769Z,15.54
2023-02-18T17:05:37.492Z,15.42
2023-02-18T17:08:04.123Z,15.34
2023-02-18T17:10:30.756Z,15.24
2023-02-18T17:13:01.806Z,15.10
2023-02-18T17:15:28.416Z,14.86
2023-02-18T17:17:55.070Z,14.93
2023-02-18T17:20:21.693Z,14.68
2023-02-18T17:22:48.347Z,14.59
2023-02-18T17:25:15.020Z,14.46
2023-02-18T17:27:41.664Z,14.55
2023-02-18T17:30:08.301Z,14.62
2023-02-18T17:32:34.975Z,14.55
2023-02-18T17:35:01.644Z,14.48
2023-02-18T17:37:28.294Z,14.34
2023-02-18T17:39:55.009Z,13.96
2023-02-18T17:42:21.689Z,13.67
2023-02-18T17:44:48.320Z,13.70
2023-02-18T17:47:14.961Z,13.26
2023-02-18T17:49:41.625Z,13.25
2023-02-18T17:52:08.233Z,13.40
2023-02-18T17:54:34.860Z,13.54
2023-02-18T17:57:01.559Z,13.48
2023-02-18T17:59:28.202Z,13.23
2023-02-18T18:01:54.889Z,13.40
2023-02-18T18:04:21.644Z,13.38
2023-02-18T18:06:48.501Z,13.25
2023-02-18T18:09:15.104Z,13.18
2023-02-18T18:11:41.768Z,12.67
2023-02-18T18:14:08.463Z,12.67
2023-02-18T18:16:35.177Z,12.78
2023-02-18T18:19:01.894Z,12.77
2023-02-18T18:21:28.495Z,12.86
2023-02-18T18:23:55.144Z,12.66
2023-02-18T18:26:21.771Z,12.69
2023-02-18T18:28:48.443Z,12.53
2023-02-18T18:31:15.189Z,12.44
2023-02-18T18:33:41.907Z,12.40
2023-02-18T18:36:08.794Z,12.02
2023-02-18T18:38:35.694Z,12.12
2023-02-18T18:41:02.346Z,11.93
2023-02-18T18:43:31.501Z,12.33
2023-02-18T18:45:59.418Z,11.92
2023-02-18T18:48:26.038Z,12.04
2023-02-18T18:50:52.682Z,11.69
2023-02-18T18:53:19.356Z,11.51
2023-02-18T18:55:46.042Z,11.91
2023-02-18T18:58:12.657Z,11.89
2023-02-18T19:00:39.355Z,11.51
2023-02-18T19:03:05.996Z,11.75
2023-02-18T19:05:32.646Z,11.88
2023-02-18T19:07:59.296Z,11.42
2023-02-18T19:10:25.936Z,11.54
2023-02-18T19:12:52.576Z,11.55
2023-02-18T19:15:19.213Z,11.51
2023-02-18T19:17:45.848Z,11.02
2023-02-18T19:20:12.505Z,11.28
2023-02-18T19:22:39.173Z,11.38
2023-02-18T19:25:05.842Z,11.08
2023-02-18T19:27:32.480Z,10.79
2023-02-18T19:29:59.167Z,10.48
2023-02-18T19:32:25.822Z,10.73
2023-02-18T19:34:52.699Z,10.30
2023-02-18T19:37:19.308Z,10.22
2023-02-18T19:39:45.958Z,10.07
2023-02-18T19:42:12.611Z,10.01
2023-02-18T19:44:39.266Z,10.26
2023-02-18T19:47:05.950Z,9.81
2023-02-18T19:49:32.632Z,10.40
2023-02-18T19:51:59.274Z,10.31
2023-02-18T19:54:25.878Z,10.29
2023-02-18T19:56:52.523Z,10.37
2023-02-18T19:59:19.167Z,10.58
2023-02-18T20:01:45.903Z,10.64
2023-02-18T20:04:12.536Z,10.83
2023-02-18T20:06:39.152Z,10.89
2023-02-18T20:09:05.785Z,10.90
2023-02-18T20:11:32.448Z,10.87
2023-02-18T20:13:59.057Z,10.86
2023-02-18T20:16:25.709Z,10.99
2023-02-18T20:18:52.313Z,10.81
2023-02-18T20:21:18.985Z,10.72
2023-02-18T20:23:45.650Z,10.18
2023-02-18T20:26:12.299Z,9.71
2023-02-18T20:28:38.998Z,10.11
2023-02-18T20:31:05.724Z,9.83
2023-02-18T20:33:32.450Z,9.53
2023-02-18T20:36:00.913Z,9.93
2023-02-18T20:38:27.504Z,9.78
2023-02-18T20:40:54.169Z,10.03
2023-02-18T20:43:20.849Z,9.78
2023-02-18T20:45:47.560Z,9.45
2023-02-18T20:48:14.172Z,9.74
2023-02-18T20:50:40.828Z,9.99
2023-02-18T20:53:07.487Z,9.89
2023-02-18T20:55:34.179Z,9.87
2023-02-18T20:58:00.855Z,10.17
2023-02-18T21:00:27.500Z,9.35
2023-02-18T21:02:54.252Z,9.66
2023-02-18T21:05:20.918Z,9.98
2023-02-18T21:07:47.592Z,9.66
2023-02-18T21:10:14.252Z,9.39
2023-02-18T21:12:40.883Z,9.65
2023-02-18T21:15:07.544Z,9.49
2023-02-18T21:17:34.204Z,9.37
2023-02-18T21:20:00.896Z,9.58
2023-02-18T21:22:27.670Z,9.16
2023-02-18T21:24:54.289Z,9.37
2023-02-18T21:27:21.025Z,9.66
2023-02-18T21:29:47.644Z,9.72
2023-02-18T21:32:14.410Z,9.60
2023-02-18T21:34:41.090Z,9.78
2023-02-18T21:37:07.733Z,9.80
2023-02-18T21:39:34.414Z,10.02
2023-02-18T21:42:01.126Z,10.12
2023-02-18T21:44:41.195Z,9.78
2023-02-18T21:47:08.242Z,9.79
2023-02-18T21:49:34.913Z,9.75
2023-02-18T21:52:01.714Z,9.44
2023-02-18T21:54:28.358Z,9.44
2023-02-18T21:56:55.027Z,9.70
2023-02-18T21:59:21.697Z,9.41
2023-02-18T22:01:48.393Z,9.68
2023-02-18T22:04:15.008Z,9.89
2023-02-18T22:06:41.679Z,10.01
2023-02-18T22:09:08.354Z,9.81
2023-02-18T22:11:35.048Z,10.03
2023-02-18T22:14:01.736Z,9.89
2023-02-18T22:16:28.455Z,9.75
2023-02-18T22:18:55.074Z,9.83
2023-02-18T22:21:21.750Z,9.96
2023-02-18T22:23:48.376Z,9.91
2023-02-18T22:26:15.107Z,9.55
2023-02-18T22:28:41.714Z,9.45
2023-02-18T22:31:09.008Z,9.62
2023-02-18T22:33:35.973Z,9.31
2023-02-18T22:36:02.614Z,9.52
2023-02-18T22:38:29.368Z,9.57
2023-02-18T22:40:56.012Z,9.60
2023-02-18T22:43:22.633Z,9.70
2023-02-18T22:45:49.366Z,9.26
2023-02-18T22:48:17.374Z,9.48
2023-02-18T22:50:45.578Z,9.55
2023-02-18T22:53:12.201Z,9.74
2023-02-18T22:55:38.814Z,9.64
2023-02-18T22:58:05.441Z,9.62
2023-02-18T23:00:32.126Z,9.47
2023-02-18T23:02:58.736Z,9.37
2023-02-18T23:05:25.495Z,9.44
2023-02-18T23:07:52.151Z,9.48
2023-02-18T23:10:18.820Z,9.52
2023-02-18T23:12:45.456Z,9.66
2023-02-18T23:15:14.112Z,9.21
2023-02-18T23:17:40.840Z,9.24
2023-02-18T23:20:07.432Z,9.38
2023-02-18T23:22:34.139Z,9.55
2023-02-18T23:25:00.808Z,9.60
2023-02-18T23:27:27.462Z,9.52
2023-02-18T23:29:54.074Z,9.62
2023-02-18T23:32:20.681Z,9.60
2023-02-18T23:34:47.318Z,9.40
2023-02-18T23:37:13.924Z,9.51
2023-02-18T23:39:40.608Z,9.53
2023-02-18T23:42:07.271Z,9.33
2023-02-18T23:44:33.910Z,9.17
2023-02-18T23:47:00.570Z,9.06
2023-02-18T23:49:27.204Z,9.28
2023-02-18T23:51:53.886Z,9.36
2023-02-18T23:54:20.803Z,9.29
2023-02-18T23:56:47.506Z,9.24
2023-02-18T23:59:14.184Z,9.21
